createdAt,value
2023-05-19T00:01:26.559Z,15.18
2023-05-19T00:03:57.681Z,15.12
2023-05-19T00:06:27.558Z,15.08
2023-05-19T00:09:05.003Z,15.02
2023-05-19T00:11:33.821Z,14.98
2023-05-19T00:14:02.357Z,14.96
2023-05-19T00:16:31.503Z,14.96
2023-05-19T00:19:01.947Z,14.97
2023-05-19T00:21:31.179Z,14.94
2023-05-19T00:23:59.144Z,14.92
2023-05-19T00:26:27.388Z,14.87
2023-05-19T00:29:00.888Z,14.96
2023-05-19T00:31:28.909Z,14.91
2023-05-19T00:33:56.476Z,14.84
2023-05-19T00:36:24.905Z,14.82
2023-05-19T00:38:52.606Z,14.77
2023-05-19T00:41:20.986Z,14.76
2023-05-19T00:43:49.149Z,14.74
2023-05-19T00:46:16.760Z,14.68
2023-05-19T00:48:45.483Z,14.57
2023-05-19T00:51:16.642Z,14.57
2023-05-19T00:53:48.914Z,14.60
2023-05-19T00:56:17.283Z,14.60
2023-05-19T00:58:45.504Z,14.61
2023-05-19T01:01:14.515Z,14.65
2023-05-19T01:03:43.829Z,14.66
2023-05-19T01:06:12.145Z,14.66
2023-05-19T01:08:40.170Z,14.65
2023-05-19T01:11:08.570Z,14.62
2023-05-19T01:13:36.843Z,14.62
2023-05-19T01:16:35.212Z,14.58
2023-05-19T01:19:33.534Z,14.54
2023-05-19T01:22:42.840Z,14.51
2023-05-19T01:25:19.859Z,14.53
2023-05-19T01:28:21.039Z,14.51
2023-05-19T01:30:53.295Z,14.52
2023-05-19T01:33:23.152Z,14.51
2023-05-19T01:35:51.751Z,14.51
2023-05-19T01:38:20.836Z,14.52
2023-05-19T01:40:50.412Z,14.52
2023-05-19T01:43:23.804Z,14.52
2023-05-19T01:45:52.157Z,14.49
2023-05-19T01:48:20.759Z,14.49
2023-05-19T01:50:48.445Z,14.48
2023-05-19T01:53:16.505Z,14.46
2023-05-19T01:55:50.768Z,14.45
2023-05-19T01:58:50.128Z,14.43
2023-05-19T02:01:44.730Z,14.42
2023-05-19T02:04:43.617Z,14.40
2023-05-19T02:07:43.492Z,14.42
2023-05-19T02:10:30.969Z,14.39
2023-05-19T02:13:04.197Z,14.38
2023-05-19T02:15:42.183Z,14.36
2023-05-19T02:18:11.784Z,14.35
2023-05-19T02:20:40.672Z,14.34
2023-05-19T02:23:08.861Z,14.31
2023-05-19T02:25:36.377Z,14.29
2023-05-19T02:28:04.114Z,14.31
2023-05-19T02:30:32.818Z,14.29
2023-05-19T02:33:01.294Z,14.32
2023-05-19T02:35:29.021Z,14.33
2023-05-19T02:37:57.241Z,14.32
2023-05-19T02:40:24.753Z,14.31
2023-05-19T02:42:52.298Z,14.35
2023-05-19T02:45:19.915Z,14.37
2023-05-19T02:47:47.515Z,14.41
2023-05-19T02:50:15.275Z,14.39
2023-05-19T02:52:42.852Z,14.38
2023-05-19T02:55:10.756Z,14.38
2023-05-19T02:57:38.296Z,14.40
2023-05-19T03:00:07.915Z,14.41
2023-05-19T03:02:35.536Z,14.39
2023-05-19T03:05:03.811Z,14.37
2023-05-19T03:07:33.626Z,14.35
2023-05-19T03:10:03.957Z,14.30
2023-05-19T03:12:32.432Z,14.27
2023-05-19T03:15:01.002Z,14.22
2023-05-19T03:17:33.581Z,14.18
2023-05-19T03:20:01.747Z,14.17
2023-05-19T03:22:29.264Z,14.19
2023-05-19T03:24:58.388Z,14.20
2023-05-19T03:27:25.963Z,14.18
2023-05-19T03:29:53.965Z,14.19
2023-05-19T03:32:22.272Z,14.22
2023-05-19T03:34:49.906Z,14.21
2023-05-19T03:37:17.610Z,14.18
2023-05-19T03:39:46.057Z,14.20
2023-05-19T03:42:13.673Z,14.18
2023-05-19T03:44:41.346Z,14.18
2023-05-19T03:47:09.188Z,14.17
2023-05-19T03:49:55.180Z,14.14
2023-05-19T03:53:01.438Z,14.12
2023-05-19T03:55:32.412Z,14.09
2023-05-19T03:57:59.994Z,14.05
2023-05-19T04:00:27.574Z,14.02
2023-05-19T04:02:55.713Z,13.97
2023-05-19T04:05:23.338Z,13.94
2023-05-19T04:07:51.013Z,13.92
2023-05-19T04:10:19.756Z,13.91
2023-05-19T04:12:48.070Z,13.90
2023-05-19T04:15:16.886Z,13.89
2023-05-19T04:17:44.672Z,13.88
2023-05-19T04:20:13.507Z,13.88
2023-05-19T04:22:41.427Z,13.89
2023-05-19T04:25:09.479Z,13.91
2023-05-19T04:27:38.824Z,13.89
2023-05-19T04:30:08.077Z,13.88
2023-05-19T04:32:37.410Z,13.89
2023-05-19T04:35:06.837Z,13.90
2023-05-19T04:37:37.362Z,13.88
2023-05-19T04:40:09.934Z,13.89
2023-05-19T04:42:41.188Z,13.90
2023-05-19T04:45:09.912Z,13.89
2023-05-19T04:47:41.858Z,13.91
2023-05-19T04:50:11.133Z,13.90
2023-05-19T04:52:38.812Z,13.89
2023-05-19T04:55:07.606Z,13.91
2023-05-19T04:57:35.898Z,13.92
2023-05-19T05:00:07.904Z,13.95
2023-05-19T05:02:47.057Z,14.02
2023-05-19T05:05:21.038Z,14.10
2023-05-19T05:07:49.448Z,14.13
2023-05-19T05:10:17.105Z,14.19
2023-05-19T05:12:45.056Z,14.27
2023-05-19T05:15:13.162Z,14.33
2023-05-19T05:17:41.154Z,14.38
2023-05-19T05:20:11.711Z,14.43
2023-05-19T05:22:39.914Z,14.51
2023-05-19T05:25:10.176Z,14.57
2023-05-19T05:27:38.482Z,14.57
2023-05-19T05:30:08.583Z,14.60
2023-05-19T05:32:36.346Z,14.63
2023-05-19T05:35:09.893Z,14.68
2023-05-19T05:37:37.751Z,14.69
2023-05-19T05:40:07.044Z,14.68
2023-05-19T05:42:35.500Z,14.69
2023-05-19T05:45:04.596Z,14.70
2023-05-19T05:47:32.961Z,14.75
2023-05-19T05:50:01.243Z,14.76
2023-05-19T05:52:31.069Z,14.80
2023-05-19T05:55:01.417Z,14.87
2023-05-19T05:57:35.338Z,14.88
2023-05-19T06:00:10.023Z,14.90
2023-05-19T06:02:47.309Z,14.90
2023-05-19T06:05:17.024Z,14.94
2023-05-19T06:07:46.713Z,14.87
2023-05-19T06:10:19.885Z,14.87
2023-05-19T06:12:48.325Z,14.89
2023-05-19T06:15:16.562Z,14.87
2023-05-19T06:18:04.343Z,14.95
2023-05-19T06:20:32.197Z,14.95
2023-05-19T06:23:01.318Z,14.89
2023-05-19T06:25:30.358Z,14.95
2023-05-19T06:27:59.288Z,14.99
2023-05-19T06:30:27.022Z,15.07
2023-05-19T06:33:09.065Z,15.20
2023-05-19T06:35:36.817Z,15.32
2023-05-19T06:38:04.466Z,15.36
2023-05-19T06:40:33.639Z,15.51
2023-05-19T06:43:01.536Z,15.63
2023-05-19T06:45:47.353Z,15.77
2023-05-19T06:48:14.979Z,15.84
2023-05-19T06:50:42.781Z,15.94
2023-05-19T06:53:11.053Z,16.04
2023-05-19T06:55:47.205Z,16.17
2023-05-19T06:58:27.092Z,16.32
2023-05-19T07:00:55.244Z,16.35
2023-05-19T07:03:26.001Z,16.41
2023-05-19T07:05:55.892Z,16.49
2023-05-19T07:08:23.792Z,16.58
2023-05-19T07:10:51.423Z,16.60
2023-05-19T07:13:19.042Z,16.59
2023-05-19T07:15:48.884Z,16.67
2023-05-19T07:18:18.456Z,16.82
2023-05-19T07:20:47.184Z,16.91
2023-05-19T07:23:16.710Z,16.98
2023-05-19T07:25:46.729Z,17.02
2023-05-19T07:28:14.328Z,17.14
2023-05-19T07:30:41.980Z,17.12
2023-05-19T07:33:09.549Z,17.11
2023-05-19T07:35:37.229Z,17.27
2023-05-19T07:38:04.805Z,17.40
2023-05-19T07:40:32.777Z,17.48
2023-05-19T07:43:00.473Z,17.54
2023-05-19T07:45:28.016Z,17.54
2023-05-19T07:47:55.919Z,17.60
2023-05-19T07:50:23.618Z,17.60
2023-05-19T07:52:51.514Z,17.60
2023-05-19T07:55:19.162Z,17.54
2023-05-19T07:57:46.793Z,17.51
2023-05-19T08:00:15.058Z,17.60
2023-05-19T08:02:43.734Z,17.73
2023-05-19T08:05:11.565Z,17.83
2023-05-19T08:07:39.236Z,17.87
2023-05-19T08:10:07.469Z,17.83
2023-05-19T08:12:35.115Z,17.74
2023-05-19T08:15:02.660Z,17.70
2023-05-19T08:17:30.278Z,17.65
2023-05-19T08:19:58.030Z,17.70
2023-05-19T08:22:25.827Z,17.80
2023-05-19T08:24:53.383Z,17.81
2023-05-19T08:27:20.973Z,17.85
2023-05-19T08:29:48.534Z,17.88
2023-05-19T08:32:16.311Z,17.94
2023-05-19T08:34:43.905Z,18.05
2023-05-19T08:37:11.891Z,18.13
2023-05-19T08:39:39.618Z,18.18
2023-05-19T08:42:09.664Z,18.27
2023-05-19T08:44:39.893Z,18.31
2023-05-19T08:47:12.784Z,18.43
2023-05-19T08:49:48.094Z,18.59
2023-05-19T08:52:31.083Z,18.69
2023-05-19T08:55:13.000Z,18.85
2023-05-19T08:57:41.521Z,18.93
2023-05-19T09:00:12.167Z,18.99
2023-05-19T09:02:50.480Z,19.02
2023-05-19T09:05:28.128Z,19.07
2023-05-19T09:07:57.071Z,19.08
2023-05-19T09:10:25.288Z,19.10
2023-05-19T09:12:53.849Z,19.15
2023-05-19T09:15:25.821Z,19.19
2023-05-19T09:18:07.764Z,19.27
2023-05-19T09:20:41.810Z,19.32
2023-05-19T09:23:17.498Z,19.36
2023-05-19T09:25:50.152Z,19.40
2023-05-19T09:28:33.262Z,19.42
2023-05-19T09:31:08.920Z,19.42
2023-05-19T09:33:39.153Z,19.36
2023-05-19T09:36:08.584Z,19.36
2023-05-19T09:38:37.640Z,19.33
2023-05-19T09:41:09.293Z,19.36
2023-05-19T09:43:36.908Z,19.39
2023-05-19T09:46:13.619Z,19.38
2023-05-19T09:48:42.383Z,19.39
2023-05-19T09:51:10.724Z,19.37
2023-05-19T09:53:38.975Z,19.36
2023-05-19T09:56:09.933Z,19.39
2023-05-19T09:58:38.060Z,19.43
2023-05-19T10:01:06.296Z,19.47
2023-05-19T10:03:34.479Z,19.52
2023-05-19T10:06:03.838Z,19.55
2023-05-19T10:08:33.418Z,19.57
2023-05-19T10:11:01.615Z,19.58
2023-05-19T10:13:30.659Z,19.61
2023-05-19T10:16:00.047Z,19.65
2023-05-19T10:18:29.436Z,19.68
2023-05-19T10:20:58.623Z,19.61
2023-05-19T10:23:26.830Z,19.60
2023-05-19T10:25:59.398Z,19.64
2023-05-19T10:28:36.833Z,19.71
2023-05-19T10:31:09.676Z,19.73
2023-05-19T10:34:04.921Z,19.83
2023-05-19T10:37:13.654Z,19.81
2023-05-19T10:39:43.450Z,19.81
2023-05-19T10:42:26.355Z,19.87
2023-05-19T10:45:31.784Z,20.01
2023-05-19T10:47:59.631Z,20.08
2023-05-19T10:50:27.302Z,20.10
2023-05-19T10:52:56.558Z,20.15
2023-05-19T10:56:06.929Z,20.21
2023-05-19T10:58:43.646Z,20.18
2023-05-19T11:01:16.472Z,20.13
2023-05-19T11:03:53.495Z,20.18
2023-05-19T11:06:29.897Z,20.23
2023-05-19T11:09:03.822Z,20.26
2023-05-19T11:11:51.286Z,20.37
2023-05-19T11:14:25.514Z,20.46
2023-05-19T11:17:00.650Z,20.44
2023-05-19T11:19:33.056Z,20.42
2023-05-19T11:22:12.894Z,20.31
2023-05-19T11:24:45.807Z,20.35
2023-05-19T11:27:32.463Z,20.37
2023-05-19T11:30:09.493Z,20.37
2023-05-19T11:32:42.449Z,20.19
2023-05-19T11:35:11.160Z,20.16
2023-05-19T11:37:41.448Z,20.20
2023-05-19T11:40:09.504Z,20.18
2023-05-19T11:42:37.301Z,20.16
2023-05-19T11:45:06.396Z,20.08
2023-05-19T11:47:42.493Z,20.05
2023-05-19T11:50:15.008Z,20.06
2023-05-19T11:52:47.392Z,19.96
2023-05-19T11:55:22.216Z,19.93
2023-05-19T11:58:03.847Z,19.97
2023-05-19T12:00:39.317Z,20.10
2023-05-19T12:03:08.990Z,20.10
2023-05-19T12:05:43.502Z,20.15
2023-05-19T12:08:12.492Z,20.21
2023-05-19T12:10:40.885Z,20.20
2023-05-19T12:13:09.579Z,20.27
2023-05-19T12:15:38.707Z,20.33
2023-05-19T12:18:07.178Z,20.38
2023-05-19T12:20:38.048Z,20.22
2023-05-19T12:23:05.879Z,20.14
2023-05-19T12:25:34.100Z,20.06
2023-05-19T12:28:05.099Z,20.00
2023-05-19T12:30:34.777Z,19.90
2023-05-19T12:33:03.528Z,19.87
2023-05-19T12:35:33.770Z,19.81
2023-05-19T12:38:06.465Z,19.75
2023-05-19T12:40:42.286Z,19.47
2023-05-19T12:43:22.991Z,19.36
2023-05-19T12:45:50.879Z,19.24
2023-05-19T12:48:22.571Z,19.20
2023-05-19T12:50:54.106Z,19.23
2023-05-19T12:53:21.705Z,19.33
2023-05-19T12:55:52.823Z,19.37
2023-05-19T12:58:21.453Z,19.33
2023-05-19T13:00:49.830Z,19.35
2023-05-19T13:03:19.670Z,19.30
2023-05-19T13:05:50.365Z,19.22
2023-05-19T13:08:20.519Z,19.16
2023-05-19T13:10:49.602Z,19.15
2023-05-19T13:13:17.592Z,19.15
2023-05-19T13:15:48.745Z,19.08
2023-05-19T13:18:17.305Z,19.10
2023-05-19T13:20:46.669Z,19.08
2023-05-19T13:23:14.768Z,19.10
2023-05-19T13:25:42.849Z,19.14
2023-05-19T13:28:10.790Z,19.13
2023-05-19T13:30:40.709Z,19.13
2023-05-19T13:33:08.333Z,19.16
2023-05-19T13:35:38.877Z,19.18
2023-05-19T13:38:10.288Z,19.17
2023-05-19T13:40:39.553Z,19.17
2023-05-19T13:43:08.451Z,19.11
2023-05-19T13:45:36.474Z,19.12
2023-05-19T13:48:04.374Z,19.13
2023-05-19T13:50:32.058Z,19.13
2023-05-19T13:52:59.756Z,19.14
2023-05-19T13:55:27.518Z,19.06
2023-05-19T13:57:55.158Z,19.07
2023-05-19T14:00:23.058Z,19.16
2023-05-19T14:02:50.762Z,19.18
2023-05-19T14:05:18.581Z,19.12
2023-05-19T14:07:46.558Z,19.03
2023-05-19T14:10:14.184Z,19.05
2023-05-19T14:12:59.550Z,19.04
2023-05-19T14:15:29.275Z,19.06
2023-05-19T14:17:57.015Z,19.05
2023-05-19T14:20:25.514Z,19.01
2023-05-19T14:22:55.438Z,18.99
2023-05-19T14:25:22.964Z,19.02
2023-05-19T14:27:50.599Z,19.06
2023-05-19T14:30:18.149Z,19.04
2023-05-19T14:32:45.786Z,19.06
2023-05-19T14:35:13.343Z,19.00
2023-05-19T14:37:40.956Z,18.92
2023-05-19T14:40:09.165Z,18.89
2023-05-19T14:42:36.721Z,18.83
2023-05-19T14:45:04.604Z,18.84
2023-05-19T14:47:32.224Z,18.83
2023-05-19T14:49:59.782Z,18.81
2023-05-19T14:52:27.392Z,18.82
2023-05-19T14:54:55.996Z,18.74
2023-05-19T14:57:23.543Z,18.77
2023-05-19T14:59:51.121Z,18.80
2023-05-19T15:02:18.801Z,18.86
2023-05-19T15:04:46.528Z,18.91
2023-05-19T15:07:14.110Z,18.94
2023-05-19T15:09:41.687Z,19.04
2023-05-19T15:12:09.289Z,19.18
2023-05-19T15:14:36.831Z,19.26
2023-05-19T15:17:04.588Z,19.31
2023-05-19T15:19:32.258Z,19.33
2023-05-19T15:21:59.864Z,19.34
2023-05-19T15:24:27.741Z,19.36
2023-05-19T15:26:55.915Z,19.40
2023-05-19T15:29:23.462Z,19.40
2023-05-19T15:31:51.774Z,19.40
2023-05-19T15:34:20.775Z,19.40
2023-05-19T15:36:48.449Z,19.45
2023-05-19T15:39:16.100Z,19.48
2023-05-19T15:41:43.692Z,19.52
2023-05-19T15:44:11.253Z,19.56
2023-05-19T15:46:38.861Z,19.61
2023-05-19T15:49:06.547Z,19.67
2023-05-19T15:51:34.735Z,19.72
2023-05-19T15:54:02.366Z,19.74
2023-05-19T15:56:29.965Z,19.76
2023-05-19T15:58:57.475Z,19.79
2023-05-19T16:01:25.583Z,19.81
2023-05-19T16:03:53.403Z,19.85
2023-05-19T16:06:21.196Z,19.94
2023-05-19T16:08:48.764Z,19.97
2023-05-19T16:11:16.362Z,19.98
2023-05-19T16:13:43.910Z,20.00
2023-05-19T16:16:11.521Z,20.05
2023-05-19T16:18:39.263Z,20.15
2023-05-19T16:21:06.927Z,20.18
2023-05-19T16:23:34.524Z,20.21
2023-05-19T16:26:02.104Z,20.34
2023-05-19T16:28:29.741Z,20.48
2023-05-19T16:30:59.512Z,20.53
2023-05-19T16:33:28.219Z,20.59
2023-05-19T16:35:57.317Z,20.65
2023-05-19T16:38:25.043Z,20.64
2023-05-19T16:40:52.738Z,20.57
2023-05-19T16:43:20.444Z,20.49
2023-05-19T16:45:48.036Z,20.47
2023-05-19T16:48:15.662Z,20.40
2023-05-19T16:50:43.312Z,20.35
2023-05-19T16:53:10.903Z,20.31
2023-05-19T16:55:38.508Z,20.26
2023-05-19T16:58:06.168Z,20.24
2023-05-19T17:00:33.904Z,20.17
2023-05-19T17:03:01.699Z,20.22
2023-05-19T17:05:29.349Z,20.32
2023-05-19T17:07:56.854Z,20.44
2023-05-19T17:10:24.421Z,20.53
2023-05-19T17:12:51.931Z,20.59
2023-05-19T17:15:19.724Z,20.60
2023-05-19T17:17:47.332Z,20.58
2023-05-19T17:20:14.953Z,20.52
2023-05-19T17:22:42.570Z,20.49
2023-05-19T17:25:10.312Z,20.49
2023-05-19T17:27:37.924Z,20.48
2023-05-19T17:30:07.021Z,20.48
2023-05-19T17:32:38.629Z,20.45
2023-05-19T17:35:07.279Z,20.42
2023-05-19T17:37:34.840Z,20.37
2023-05-19T17:40:02.423Z,20.34
2023-05-19T17:42:31.807Z,20.29
2023-05-19T17:44:59.646Z,20.21
2023-05-19T17:47:27.320Z,20.13
2023-05-19T17:49:54.889Z,20.03
2023-05-19T17:52:22.892Z,19.93
2023-05-19T17:54:50.969Z,19.82
2023-05-19T17:57:19.543Z,19.78
2023-05-19T17:59:47.471Z,19.77
2023-05-19T18:02:15.934Z,19.77
2023-05-19T18:04:43.951Z,19.75
2023-05-19T18:07:13.677Z,19.65
2023-05-19T18:09:48.414Z,19.63
2023-05-19T18:12:16.201Z,19.54
2023-05-19T18:14:43.904Z,19.48
2023-05-19T18:17:11.412Z,19.42
2023-05-19T18:19:38.988Z,19.37
2023-05-19T18:22:07.322Z,19.27
2023-05-19T18:24:34.899Z,19.20
2023-05-19T18:27:03.168Z,19.13
2023-05-19T18:29:30.723Z,19.07
2023-05-19T18:31:58.284Z,19.04
2023-05-19T18:34:27.579Z,18.97
2023-05-19T18:36:55.489Z,18.86
2023-05-19T18:39:23.218Z,18.75
2023-05-19T18:41:51.381Z,18.68
2023-05-19T18:44:18.959Z,18.63
2023-05-19T18:46:46.651Z,18.59
2023-05-19T18:49:14.199Z,18.57
2023-05-19T18:51:42.225Z,18.53
2023-05-19T18:54:09.979Z,18.49
2023-05-19T18:56:37.531Z,18.44
2023-05-19T18:59:05.100Z,18.35
2023-05-19T19:01:32.747Z,18.28
2023-05-19T19:04:00.922Z,18.22
2023-05-19T19:06:30.743Z,18.15
2023-05-19T19:08:58.300Z,18.06
2023-05-19T19:11:26.310Z,17.97
2023-05-19T19:13:55.474Z,17.86
2023-05-19T19:16:23.255Z,17.76
2023-05-19T19:18:50.928Z,17.66
2023-05-19T19:21:19.838Z,17.56
2023-05-19T19:23:47.906Z,17.50
2023-05-19T19:26:16.078Z,17.41
2023-05-19T19:28:43.779Z,17.32
2023-05-19T19:31:11.416Z,17.25
2023-05-19T19:33:39.774Z,17.23
2023-05-19T19:36:07.405Z,17.17
2023-05-19T19:38:34.952Z,17.15
2023-05-19T19:41:02.785Z,17.13
2023-05-19T19:43:31.325Z,17.16
2023-05-19T19:46:06.906Z,17.18
2023-05-19T19:48:34.476Z,17.20
2023-05-19T19:51:02.109Z,17.15
2023-05-19T19:53:30.765Z,17.08
2023-05-19T19:56:02.875Z,17.09
2023-05-19T19:58:30.605Z,17.16
2023-05-19T20:01:03.537Z,17.16
2023-05-19T20:03:33.168Z,17.19
2023-05-19T20:06:01.016Z,17.16
2023-05-19T20:08:28.535Z,17.11
2023-05-19T20:10:56.295Z,17.06
2023-05-19T20:13:24.326Z,17.07
2023-05-19T20:15:51.899Z,17.03
2023-05-19T20:18:19.530Z,17.05
2023-05-19T20:20:47.132Z,17.01
2023-05-19T20:23:16.101Z,17.02
2023-05-19T20:25:53.716Z,17.04
2023-05-19T20:28:30.431Z,17.02
2023-05-19T20:30:58.004Z,16.91
2023-05-19T20:33:25.534Z,16.91
2023-05-19T20:35:53.140Z,16.90
2023-05-19T20:38:20.674Z,16.92
2023-05-19T20:40:48.658Z,16.92
2023-05-19T20:43:16.351Z,16.97
2023-05-19T20:45:44.583Z,16.97
2023-05-19T20:48:12.361Z,16.94
2023-05-19T20:50:40.058Z,16.95
2023-05-19T20:53:07.703Z,16.95
2023-05-19T20:55:36.487Z,16.89
2023-05-19T20:58:04.094Z,16.92
2023-05-19T21:00:32.049Z,16.92
2023-05-19T21:02:59.892Z,16.90
2023-05-19T21:05:27.530Z,16.93
2023-05-19T21:07:55.075Z,16.90
2023-05-19T21:10:22.714Z,16.86
2023-05-19T21:12:50.409Z,16.85
2023-05-19T21:15:18.146Z,16.89
2023-05-19T21:17:46.553Z,16.90
2023-05-19T21:20:14.181Z,16.93
2023-05-19T21:22:41.709Z,16.92
2023-05-19T21:25:09.457Z,16.91
2023-05-19T21:27:37.036Z,16.91
2023-05-19T21:30:05.139Z,16.85
2023-05-19T21:32:32.902Z,16.83
2023-05-19T21:35:01.203Z,16.84
2023-05-19T21:37:28.738Z,16.83
2023-05-19T21:39:56.286Z,16.84
2023-05-19T21:42:23.828Z,16.84
2023-05-19T21:44:51.409Z,16.82
2023-05-19T21:47:18.939Z,16.81
2023-05-19T21:49:46.460Z,16.84
2023-05-19T21:52:14.033Z,16.84
2023-05-19T21:54:41.606Z,16.83
2023-05-19T21:57:11.037Z,16.82
2023-05-19T21:59:38.888Z,16.85
2023-05-19T22:02:06.618Z,16.88
2023-05-19T22:04:34.309Z,16.93
2023-05-19T22:07:01.905Z,16.95
2023-05-19T22:09:29.627Z,16.97
2023-05-19T22:11:57.179Z,16.95
2023-05-19T22:14:25.013Z,16.90
2023-05-19T22:16:52.726Z,16.85
2023-05-19T22:19:20.490Z,16.83
2023-05-19T22:21:49.207Z,16.85
2023-05-19T22:24:18.477Z,16.88
2023-05-19T22:26:46.912Z,16.86
2023-05-19T22:29:18.314Z,16.85
2023-05-19T22:31:46.314Z,16.82
2023-05-19T22:34:15.383Z,16.76
2023-05-19T22:36:45.825Z,16.73
2023-05-19T22:39:13.465Z,16.72
2023-05-19T22:41:41.906Z,16.69
2023-05-19T22:44:11.255Z,16.62
2023-05-19T22:46:38.853Z,16.59
2023-05-19T22:49:06.460Z,16.57
2023-05-19T22:51:33.987Z,16.51
2023-05-19T22:54:01.671Z,16.47
2023-05-19T22:56:29.204Z,16.47
2023-05-19T22:58:56.781Z,16.44
2023-05-19T23:01:24.448Z,16.38
2023-05-19T23:03:52.165Z,16.33
2023-05-19T23:06:19.762Z,16.30
2023-05-19T23:08:47.371Z,16.28
2023-05-19T23:11:14.984Z,16.25
2023-05-19T23:13:42.580Z,16.21
2023-05-19T23:16:10.204Z,16.16
2023-05-19T23:18:37.813Z,16.14
2023-05-19T23:21:05.387Z,16.13
2023-05-19T23:23:32.887Z,16.09
2023-05-19T23:26:00.444Z,16.06
2023-05-19T23:28:28.005Z,16.03
2023-05-19T23:30:56.154Z,16.00
2023-05-19T23:33:23.722Z,15.98
2023-05-19T23:35:51.259Z,15.97
2023-05-19T23:38:18.806Z,15.95
2023-05-19T23:40:46.345Z,15.90
2023-05-19T23:43:13.968Z,15.87
2023-05-19T23:45:42.163Z,15.87
2023-05-19T23:48:09.732Z,15.87
2023-05-19T23:50:37.293Z,15.88
2023-05-19T23:53:05.028Z,15.90
2023-05-19T23:55:32.779Z,15.90
2023-05-19T23:58:00.567Z,15.91
